sensor_id;sensor_type;location;lat;lon;timestamp;temperature;humidity
33988;DHT22;37428;53.580;-1.666;2023-12-14T00:00:52;1.70;99.30
33988;DHT22;37428;53.580;-1.666;2023-12-14T00:03:54;1.70;99.20
33988;DHT22;37428;53.580;-1.666;2023-12-14T00:06:56;1.70;99.20
33988;DHT22;37428;53.580;-1.666;2023-12-14T00:09:59;1.80;99.20
33988;DHT22;37428;53.580;-1.666;2023-12-14T00:13:01;1.80;99.00
33988;DHT22;37428;53.580;-1.666;2023-12-14T00:16:07;1.90;98.70
33988;DHT22;37428;53.580;-1.666;2023-12-14T00:19:10;2.00;98.60
33988;DHT22;37428;53.580;-1.666;2023-12-14T00:22:12;2.00;98.80
33988;DHT22;37428;53.580;-1.666;2023-12-14T00:25:14;2.10;98.40
33988;DHT22;37428;53.580;-1.666;2023-12-14T00:28:16;2.10;98.20
33988;DHT22;37428;53.580;-1.666;2023-12-14T00:31:20;2.10;98.20
33988;DHT22;37428;53.580;-1.666;2023-12-14T00:34:22;2.10;98.20
33988;DHT22;37428;53.580;-1.666;2023-12-14T00:37:24;2.00;97.70
33988;DHT22;37428;53.580;-1.666;2023-12-14T00:40:27;2.00;97.80
33988;DHT22;37428;53.580;-1.666;2023-12-14T00:43:29;1.90;97.70
33988;DHT22;37428;53.580;-1.666;2023-12-14T00:46:32;1.90;98.10
33988;DHT22;37428;53.580;-1.666;2023-12-14T00:49:36;1.90;98.50
33988;DHT22;37428;53.580;-1.666;2023-12-14T00:52:39;1.90;98.40
33988;DHT22;37428;53.580;-1.666;2023-12-14T00:55:41;2.00;97.50
33988;DHT22;37428;53.580;-1.666;2023-12-14T00:58:46;2.00;96.40
33988;DHT22;37428;53.580;-1.666;2023-12-14T01:02:04;2.00;95.70
33988;DHT22;37428;53.580;-1.666;2023-12-14T01:05:13;2.10;95.60
33988;DHT22;37428;53.580;-1.666;2023-12-14T01:08:15;2.10;95.40
33988;DHT22;37428;53.580;-1.666;2023-12-14T01:11:17;2.10;95.20
33988;DHT22;37428;53.580;-1.666;2023-12-14T01:14:19;2.10;95.30
33988;DHT22;37428;53.580;-1.666;2023-12-14T01:17:26;2.10;95.60
33988;DHT22;37428;53.580;-1.666;2023-12-14T01:20:29;2.00;95.60
33988;DHT22;37428;53.580;-1.666;2023-12-14T01:23:45;2.00;95.60
33988;DHT22;37428;53.580;-1.666;2023-12-14T01:27:22;2.00;95.70
33988;DHT22;37428;53.580;-1.666;2023-12-14T01:30:31;1.90;95.60
33988;DHT22;37428;53.580;-1.666;2023-12-14T01:37:35;1.80;96.10
33988;DHT22;37428;53.580;-1.666;2023-12-14T01:40:40;1.80;96.20
33988;DHT22;37428;53.580;-1.666;2023-12-14T01:43:58;1.90;96.20
33988;DHT22;37428;53.580;-1.666;2023-12-14T01:47:00;1.90;96.30
33988;DHT22;37428;53.580;-1.666;2023-12-14T01:50:20;1.90;96.50
33988;DHT22;37428;53.580;-1.666;2023-12-14T01:53:24;2.00;96.60
33988;DHT22;37428;53.580;-1.666;2023-12-14T01:56:26;2.00;96.90
33988;DHT22;37428;53.580;-1.666;2023-12-14T01:59:28;2.10;96.90
33988;DHT22;37428;53.580;-1.666;2023-12-14T02:02:30;2.10;95.90
33988;DHT22;37428;53.580;-1.666;2023-12-14T02:05:34;2.10;96.10
33988;DHT22;37428;53.580;-1.666;2023-12-14T02:09:01;2.20;96.30
33988;DHT22;37428;53.580;-1.666;2023-12-14T02:12:04;2.20;96.10
33988;DHT22;37428;53.580;-1.666;2023-12-14T02:15:07;2.20;96.60
33988;DHT22;37428;53.580;-1.666;2023-12-14T02:18:31;2.30;96.40
33988;DHT22;37428;53.580;-1.666;2023-12-14T02:21:39;2.30;96.60
33988;DHT22;37428;53.580;-1.666;2023-12-14T02:24:57;2.30;96.20
33988;DHT22;37428;53.580;-1.666;2023-12-14T02:28:00;2.30;96.50
33988;DHT22;37428;53.580;-1.666;2023-12-14T02:31:18;2.40;96.70
33988;DHT22;37428;53.580;-1.666;2023-12-14T02:34:22;2.40;97.50
33988;DHT22;37428;53.580;-1.666;2023-12-14T02:37:27;2.50;97.70
33988;DHT22;37428;53.580;-1.666;2023-12-14T02:44:14;2.50;96.40
33988;DHT22;37428;53.580;-1.666;2023-12-14T02:47:18;2.50;96.30
33988;DHT22;37428;53.580;-1.666;2023-12-14T02:50:23;2.50;95.00
33988;DHT22;37428;53.580;-1.666;2023-12-14T02:53:40;2.60;93.00
33988;DHT22;37428;53.580;-1.666;2023-12-14T02:56:42;2.70;92.50
33988;DHT22;37428;53.580;-1.666;2023-12-14T02:59:46;2.70;92.80
33988;DHT22;37428;53.580;-1.666;2023-12-14T03:03:16;2.80;93.40
33988;DHT22;37428;53.580;-1.666;2023-12-14T03:06:42;2.80;94.40
33988;DHT22;37428;53.580;-1.666;2023-12-14T03:09:59;2.80;94.40
33988;DHT22;37428;53.580;-1.666;2023-12-14T03:13:13;2.80;93.90
33988;DHT22;37428;53.580;-1.666;2023-12-14T03:16:20;2.90;93.50
33988;DHT22;37428;53.580;-1.666;2023-12-14T03:19:28;2.90;92.40
33988;DHT22;37428;53.580;-1.666;2023-12-14T03:22:52;2.90;92.10
33988;DHT22;37428;53.580;-1.666;2023-12-14T03:26:19;2.90;92.40
33988;DHT22;37428;53.580;-1.666;2023-12-14T03:29:34;3.00;92.70
33988;DHT22;37428;53.580;-1.666;2023-12-14T03:32:38;3.00;92.70
33988;DHT22;37428;53.580;-1.666;2023-12-14T03:35:40;3.10;91.80
33988;DHT22;37428;53.580;-1.666;2023-12-14T03:38:43;3.10;91.80
33988;DHT22;37428;53.580;-1.666;2023-12-14T03:41:45;3.10;91.20
33988;DHT22;37428;53.580;-1.666;2023-12-14T03:44:47;3.10;91.70
33988;DHT22;37428;53.580;-1.666;2023-12-14T03:47:51;3.10;92.60
33988;DHT22;37428;53.580;-1.666;2023-12-14T03:50:53;3.10;93.40
33988;DHT22;37428;53.580;-1.666;2023-12-14T03:53:56;3.20;94.00
33988;DHT22;37428;53.580;-1.666;2023-12-14T03:56:58;3.10;94.10
33988;DHT22;37428;53.580;-1.666;2023-12-14T04:00:00;3.20;93.90
33988;DHT22;37428;53.580;-1.666;2023-12-14T04:03:04;3.20;94.20
33988;DHT22;37428;53.580;-1.666;2023-12-14T04:06:06;3.20;94.90
33988;DHT22;37428;53.580;-1.666;2023-12-14T04:09:08;3.20;94.60
33988;DHT22;37428;53.580;-1.666;2023-12-14T04:12:12;3.20;95.20
33988;DHT22;37428;53.580;-1.666;2023-12-14T04:15:14;3.20;94.00
33988;DHT22;37428;53.580;-1.666;2023-12-14T04:18:18;3.30;92.60
33988;DHT22;37428;53.580;-1.666;2023-12-14T04:21:20;3.40;91.80
33988;DHT22;37428;53.580;-1.666;2023-12-14T04:24:22;3.40;91.30
33988;DHT22;37428;53.580;-1.666;2023-12-14T04:27:24;3.40;90.70
33988;DHT22;37428;53.580;-1.666;2023-12-14T04:30:29;3.40;91.40
33988;DHT22;37428;53.580;-1.666;2023-12-14T04:33:33;3.40;91.80
33988;DHT22;37428;53.580;-1.666;2023-12-14T04:36:35;3.40;92.30
33988;DHT22;37428;53.580;-1.666;2023-12-14T04:39:37;3.40;93.10
33988;DHT22;37428;53.580;-1.666;2023-12-14T04:42:39;3.30;93.90
33988;DHT22;37428;53.580;-1.666;2023-12-14T04:45:41;3.30;93.90
33988;DHT22;37428;53.580;-1.666;2023-12-14T04:48:46;3.30;95.00
33988;DHT22;37428;53.580;-1.666;2023-12-14T04:51:48;3.30;95.50
33988;DHT22;37428;53.580;-1.666;2023-12-14T04:54:50;3.30;95.90
33988;DHT22;37428;53.580;-1.666;2023-12-14T04:57:52;3.30;95.60
33988;DHT22;37428;53.580;-1.666;2023-12-14T05:00:55;3.30;95.80
33988;DHT22;37428;53.580;-1.666;2023-12-14T05:03:58;3.30;95.50
33988;DHT22;37428;53.580;-1.666;2023-12-14T05:07:00;3.40;95.20
33988;DHT22;37428;53.580;-1.666;2023-12-14T05:10:03;3.40;95.40
33988;DHT22;37428;53.580;-1.666;2023-12-14T05:13:06;3.40;95.60
33988;DHT22;37428;53.580;-1.666;2023-12-14T05:16:13;3.50;95.80
33988;DHT22;37428;53.580;-1.666;2023-12-14T05:19:16;3.50;95.80
33988;DHT22;37428;53.580;-1.666;2023-12-14T05:22:19;3.50;96.10
33988;DHT22;37428;53.580;-1.666;2023-12-14T05:25:21;3.50;95.80
33988;DHT22;37428;53.580;-1.666;2023-12-14T05:28:23;3.60;95.70
33988;DHT22;37428;53.580;-1.666;2023-12-14T05:31:25;3.60;95.40
33988;DHT22;37428;53.580;-1.666;2023-12-14T05:34:29;3.70;94.90
33988;DHT22;37428;53.580;-1.666;2023-12-14T05:37:31;3.70;94.80
33988;DHT22;37428;53.580;-1.666;2023-12-14T05:40:33;3.80;95.20
33988;DHT22;37428;53.580;-1.666;2023-12-14T05:43:36;3.80;95.10
33988;DHT22;37428;53.580;-1.666;2023-12-14T05:46:38;3.80;95.10
33988;DHT22;37428;53.580;-1.666;2023-12-14T05:49:43;3.80;95.30
33988;DHT22;37428;53.580;-1.666;2023-12-14T05:52:45;3.70;95.90
33988;DHT22;37428;53.580;-1.666;2023-12-14T05:55:47;3.60;95.50
33988;DHT22;37428;53.580;-1.666;2023-12-14T05:58:49;3.50;96.20
33988;DHT22;37428;53.580;-1.666;2023-12-14T06:01:56;3.40;96.20
33988;DHT22;37428;53.580;-1.666;2023-12-14T06:05:00;3.40;96.60
33988;DHT22;37428;53.580;-1.666;2023-12-14T06:08:02;3.40;97.20
33988;DHT22;37428;53.580;-1.666;2023-12-14T06:11:05;3.40;97.30
33988;DHT22;37428;53.580;-1.666;2023-12-14T06:14:07;3.40;97.30
33988;DHT22;37428;53.580;-1.666;2023-12-14T06:17:09;3.40;97.30
33988;DHT22;37428;53.580;-1.666;2023-12-14T06:20:13;3.50;98.00
33988;DHT22;37428;53.580;-1.666;2023-12-14T06:23:15;3.60;98.50
33988;DHT22;37428;53.580;-1.666;2023-12-14T06:26:17;3.70;98.70
33988;DHT22;37428;53.580;-1.666;2023-12-14T06:29:20;3.80;98.90
33988;DHT22;37428;53.580;-1.666;2023-12-14T06:32:22;3.90;98.90
33988;DHT22;37428;53.580;-1.666;2023-12-14T06:35:25;4.00;98.90
33988;DHT22;37428;53.580;-1.666;2023-12-14T06:38:27;4.00;98.80
33988;DHT22;37428;53.580;-1.666;2023-12-14T06:41:30;4.00;98.90
33988;DHT22;37428;53.580;-1.666;2023-12-14T06:44:32;4.00;98.90
33988;DHT22;37428;53.580;-1.666;2023-12-14T06:47:34;4.10;99.20
33988;DHT22;37428;53.580;-1.666;2023-12-14T06:50:38;4.10;99.40
33988;DHT22;37428;53.580;-1.666;2023-12-14T06:53:41;4.20;99.20
33988;DHT22;37428;53.580;-1.666;2023-12-14T06:56:43;4.20;98.40
33988;DHT22;37428;53.580;-1.666;2023-12-14T06:59:45;4.20;98.40
33988;DHT22;37428;53.580;-1.666;2023-12-14T07:02:48;4.20;99.00
33988;DHT22;37428;53.580;-1.666;2023-12-14T07:05:51;4.30;99.30
33988;DHT22;37428;53.580;-1.666;2023-12-14T07:08:53;4.30;99.20
33988;DHT22;37428;53.580;-1.666;2023-12-14T07:11:56;4.40;99.90
33988;DHT22;37428;53.580;-1.666;2023-12-14T07:14:58;4.30;99.90
33988;DHT22;37428;53.580;-1.666;2023-12-14T07:18:00;4.40;99.90
33988;DHT22;37428;53.580;-1.666;2023-12-14T07:21:04;4.40;99.90
33988;DHT22;37428;53.580;-1.666;2023-12-14T07:24:07;4.40;99.90
33988;DHT22;37428;53.580;-1.666;2023-12-14T07:27:09;4.40;99.90
33988;DHT22;37428;53.580;-1.666;2023-12-14T07:30:12;4.50;99.90
33988;DHT22;37428;53.580;-1.666;2023-12-14T07:33:14;4.50;99.90
33988;DHT22;37428;53.580;-1.666;2023-12-14T07:36:18;4.50;99.90
33988;DHT22;37428;53.580;-1.666;2023-12-14T07:39:20;4.50;99.90
33988;DHT22;37428;53.580;-1.666;2023-12-14T07:42:22;4.50;99.90
33988;DHT22;37428;53.580;-1.666;2023-12-14T07:45:24;4.50;99.90
33988;DHT22;37428;53.580;-1.666;2023-12-14T07:48:27;4.50;99.90
33988;DHT22;37428;53.580;-1.666;2023-12-14T07:51:32;4.50;99.90
33988;DHT22;37428;53.580;-1.666;2023-12-14T07:54:34;4.60;99.90
33988;DHT22;37428;53.580;-1.666;2023-12-14T07:57:37;4.60;99.90
33988;DHT22;37428;53.580;-1.666;2023-12-14T08:00:39;4.60;99.90
33988;DHT22;37428;53.580;-1.666;2023-12-14T08:03:41;4.70;99.90
33988;DHT22;37428;53.580;-1.666;2023-12-14T08:06:45;4.70;99.90
33988;DHT22;37428;53.580;-1.666;2023-12-14T08:09:47;4.70;99.90
33988;DHT22;37428;53.580;-1.666;2023-12-14T08:12:50;4.80;99.90
33988;DHT22;37428;53.580;-1.666;2023-12-14T08:15:53;4.80;99.90
33988;DHT22;37428;53.580;-1.666;2023-12-14T08:18:55;4.80;99.90
33988;DHT22;37428;53.580;-1.666;2023-12-14T08:21:58;4.90;99.90
33988;DHT22;37428;53.580;-1.666;2023-12-14T08:25:00;4.90;99.90
33988;DHT22;37428;53.580;-1.666;2023-12-14T08:28:04;5.00;99.90
33988;DHT22;37428;53.580;-1.666;2023-12-14T08:31:06;5.00;99.90
33988;DHT22;37428;53.580;-1.666;2023-12-14T08:34:10;5.10;99.90
33988;DHT22;37428;53.580;-1.666;2023-12-14T08:37:14;5.10;99.90
33988;DHT22;37428;53.580;-1.666;2023-12-14T08:40:16;5.10;99.90
33988;DHT22;37428;53.580;-1.666;2023-12-14T08:43:18;5.10;99.90
33988;DHT22;37428;53.580;-1.666;2023-12-14T08:46:20;5.10;99.90
33988;DHT22;37428;53.580;-1.666;2023-12-14T08:49:23;5.10;99.90
33988;DHT22;37428;53.580;-1.666;2023-12-14T08:52:27;5.10;99.90
33988;DHT22;37428;53.580;-1.666;2023-12-14T08:55:29;5.10;99.90
33988;DHT22;37428;53.580;-1.666;2023-12-14T08:58:32;5.20;99.90
33988;DHT22;37428;53.580;-1.666;2023-12-14T09:01:34;5.20;99.90
33988;DHT22;37428;53.580;-1.666;2023-12-14T09:04:36;5.20;99.90
33988;DHT22;37428;53.580;-1.666;2023-12-14T09:07:41;5.30;99.90
33988;DHT22;37428;53.580;-1.666;2023-12-14T09:10:43;5.30;99.90
33988;DHT22;37428;53.580;-1.666;2023-12-14T09:13:45;5.30;99.90
33988;DHT22;37428;53.580;-1.666;2023-12-14T09:16:47;5.30;99.90
33988;DHT22;37428;53.580;-1.666;2023-12-14T09:19:49;5.40;99.90
33988;DHT22;37428;53.580;-1.666;2023-12-14T09:22:53;5.40;99.90
33988;DHT22;37428;53.580;-1.666;2023-12-14T09:25:55;5.50;99.90
33988;DHT22;37428;53.580;-1.666;2023-12-14T09:28:58;5.50;99.90
33988;DHT22;37428;53.580;-1.666;2023-12-14T09:32:00;5.50;99.90
33988;DHT22;37428;53.580;-1.666;2023-12-14T09:35:03;5.60;99.90
33988;DHT22;37428;53.580;-1.666;2023-12-14T09:38:07;5.60;99.90
33988;DHT22;37428;53.580;-1.666;2023-12-14T09:41:09;5.70;99.90
33988;DHT22;37428;53.580;-1.666;2023-12-14T09:44:12;5.70;99.90
33988;DHT22;37428;53.580;-1.666;2023-12-14T09:47:14;5.80;99.90
33988;DHT22;37428;53.580;-1.666;2023-12-14T09:50:16;5.80;99.90
33988;DHT22;37428;53.580;-1.666;2023-12-14T09:53:20;5.90;99.90
33988;DHT22;37428;53.580;-1.666;2023-12-14T09:56:22;6.00;99.90
33988;DHT22;37428;53.580;-1.666;2023-12-14T09:59:24;6.00;99.90
33988;DHT22;37428;53.580;-1.666;2023-12-14T10:02:27;6.00;99.90
33988;DHT22;37428;53.580;-1.666;2023-12-14T10:05:29;6.00;99.90
33988;DHT22;37428;53.580;-1.666;2023-12-14T10:08:33;6.00;99.90
33988;DHT22;37428;53.580;-1.666;2023-12-14T10:11:35;6.00;99.90
33988;DHT22;37428;53.580;-1.666;2023-12-14T10:14:37;6.00;99.90
33988;DHT22;37428;53.580;-1.666;2023-12-14T10:17:40;6.00;99.90
33988;DHT22;37428;53.580;-1.666;2023-12-14T10:20:42;6.10;99.90
33988;DHT22;37428;53.580;-1.666;2023-12-14T10:23:47;6.20;99.90
33988;DHT22;37428;53.580;-1.666;2023-12-14T10:26:50;6.30;99.90
33988;DHT22;37428;53.580;-1.666;2023-12-14T10:29:53;6.30;99.90
33988;DHT22;37428;53.580;-1.666;2023-12-14T10:32:55;6.30;99.90
33988;DHT22;37428;53.580;-1.666;2023-12-14T10:35:57;6.30;99.90
33988;DHT22;37428;53.580;-1.666;2023-12-14T10:39:01;6.30;99.90
33988;DHT22;37428;53.580;-1.666;2023-12-14T10:42:06;6.30;99.90
33988;DHT22;37428;53.580;-1.666;2023-12-14T10:45:12;6.30;99.90
33988;DHT22;37428;53.580;-1.666;2023-12-14T10:48:17;6.30;99.90
33988;DHT22;37428;53.580;-1.666;2023-12-14T10:51:22;6.30;99.90
33988;DHT22;37428;53.580;-1.666;2023-12-14T10:54:27;6.40;99.90
33988;DHT22;37428;53.580;-1.666;2023-12-14T10:57:30;6.40;99.90
33988;DHT22;37428;53.580;-1.666;2023-12-14T11:00:33;6.50;99.90
33988;DHT22;37428;53.580;-1.666;2023-12-14T11:03:36;6.50;99.90
33988;DHT22;37428;53.580;-1.666;2023-12-14T11:06:38;6.50;99.90
33988;DHT22;37428;53.580;-1.666;2023-12-14T11:09:46;6.50;99.90
33988;DHT22;37428;53.580;-1.666;2023-12-14T11:12:56;6.60;99.90
33988;DHT22;37428;53.580;-1.666;2023-12-14T11:16:00;6.60;99.90
33988;DHT22;37428;53.580;-1.666;2023-12-14T11:19:23;6.60;99.90
33988;DHT22;37428;53.580;-1.666;2023-12-14T11:22:28;6.60;99.90
33988;DHT22;37428;53.580;-1.666;2023-12-14T11:25:32;6.70;99.90
33988;DHT22;37428;53.580;-1.666;2023-12-14T11:28:35;6.70;99.90
33988;DHT22;37428;53.580;-1.666;2023-12-14T11:31:40;6.70;99.90
33988;DHT22;37428;53.580;-1.666;2023-12-14T11:34:42;6.70;99.90
33988;DHT22;37428;53.580;-1.666;2023-12-14T11:37:44;6.80;99.90
33988;DHT22;37428;53.580;-1.666;2023-12-14T11:40:49;6.90;99.90
33988;DHT22;37428;53.580;-1.666;2023-12-14T11:43:51;6.90;99.90
33988;DHT22;37428;53.580;-1.666;2023-12-14T11:46:53;6.90;99.90
33988;DHT22;37428;53.580;-1.666;2023-12-14T11:49:56;6.90;99.90
33988;DHT22;37428;53.580;-1.666;2023-12-14T11:52:58;7.00;99.90
33988;DHT22;37428;53.580;-1.666;2023-12-14T11:56:04;6.90;99.90
33988;DHT22;37428;53.580;-1.666;2023-12-14T11:59:10;6.90;99.90
33988;DHT22;37428;53.580;-1.666;2023-12-14T12:02:23;6.90;99.90
33988;DHT22;37428;53.580;-1.666;2023-12-14T12:05:35;7.00;99.90
33988;DHT22;37428;53.580;-1.666;2023-12-14T12:08:41;7.10;99.90
33988;DHT22;37428;53.580;-1.666;2023-12-14T12:11:45;7.10;99.90
33988;DHT22;37428;53.580;-1.666;2023-12-14T12:14:49;7.10;99.90
33988;DHT22;37428;53.580;-1.666;2023-12-14T12:17:53;7.00;99.90
33988;DHT22;37428;53.580;-1.666;2023-12-14T12:20:55;6.90;99.90
33988;DHT22;37428;53.580;-1.666;2023-12-14T12:24:01;6.90;99.90
33988;DHT22;37428;53.580;-1.666;2023-12-14T12:27:05;6.90;99.90
33988;DHT22;37428;53.580;-1.666;2023-12-14T12:30:09;6.90;99.90
33988;DHT22;37428;53.580;-1.666;2023-12-14T12:33:11;6.90;99.90
33988;DHT22;37428;53.580;-1.666;2023-12-14T12:36:13;6.90;99.90
33988;DHT22;37428;53.580;-1.666;2023-12-14T12:39:16;6.80;99.90
33988;DHT22;37428;53.580;-1.666;2023-12-14T12:42:19;6.80;99.90
33988;DHT22;37428;53.580;-1.666;2023-12-14T12:45:22;6.80;99.90
33988;DHT22;37428;53.580;-1.666;2023-12-14T12:48:28;6.80;99.90
33988;DHT22;37428;53.580;-1.666;2023-12-14T12:51:30;6.80;99.90
33988;DHT22;37428;53.580;-1.666;2023-12-14T12:54:33;6.80;99.90
33988;DHT22;37428;53.580;-1.666;2023-12-14T12:57:36;6.80;99.90
33988;DHT22;37428;53.580;-1.666;2023-12-14T13:00:39;6.80;99.90
33988;DHT22;37428;53.580;-1.666;2023-12-14T13:03:41;6.80;99.90
33988;DHT22;37428;53.580;-1.666;2023-12-14T13:06:43;6.80;99.90
33988;DHT22;37428;53.580;-1.666;2023-12-14T13:09:45;6.80;99.90
33988;DHT22;37428;53.580;-1.666;2023-12-14T13:12:49;6.80;99.90
33988;DHT22;37428;53.580;-1.666;2023-12-14T13:15:51;6.90;99.90
33988;DHT22;37428;53.580;-1.666;2023-12-14T13:18:54;7.10;99.90
33988;DHT22;37428;53.580;-1.666;2023-12-14T13:21:56;7.20;99.90
33988;DHT22;37428;53.580;-1.666;2023-12-14T13:25:00;7.20;99.90
33988;DHT22;37428;53.580;-1.666;2023-12-14T13:28:05;7.30;99.90
33988;DHT22;37428;53.580;-1.666;2023-12-14T13:31:07;7.40;99.90
33988;DHT22;37428;53.580;-1.666;2023-12-14T13:34:09;7.40;99.90
33988;DHT22;37428;53.580;-1.666;2023-12-14T13:37:11;7.50;99.90
33988;DHT22;37428;53.580;-1.666;2023-12-14T13:40:14;7.50;99.90
33988;DHT22;37428;53.580;-1.666;2023-12-14T13:43:18;7.50;99.90
33988;DHT22;37428;53.580;-1.666;2023-12-14T13:46:21;7.50;99.90
33988;DHT22;37428;53.580;-1.666;2023-12-14T13:49:23;7.40;99.90
33988;DHT22;37428;53.580;-1.666;2023-12-14T13:52:25;7.40;99.90
33988;DHT22;37428;53.580;-1.666;2023-12-14T13:55:27;7.40;99.90
33988;DHT22;37428;53.580;-1.666;2023-12-14T13:58:31;7.40;99.90
33988;DHT22;37428;53.580;-1.666;2023-12-14T14:01:35;7.40;99.90
33988;DHT22;37428;53.580;-1.666;2023-12-14T14:04:38;7.40;99.90
33988;DHT22;37428;53.580;-1.666;2023-12-14T14:07:40;7.30;99.90
33988;DHT22;37428;53.580;-1.666;2023-12-14T14:10:42;7.30;99.90
33988;DHT22;37428;53.580;-1.666;2023-12-14T14:13:46;7.20;99.90
33988;DHT22;37428;53.580;-1.666;2023-12-14T14:16:48;7.10;99.90
33988;DHT22;37428;53.580;-1.666;2023-12-14T14:19:51;7.00;99.90
33988;DHT22;37428;53.580;-1.666;2023-12-14T14:22:53;7.00;99.90
33988;DHT22;37428;53.580;-1.666;2023-12-14T14:25:55;7.00;99.90
33988;DHT22;37428;53.580;-1.666;2023-12-14T14:28:59;6.90;99.90
33988;DHT22;37428;53.580;-1.666;2023-12-14T14:32:02;6.90;99.90
33988;DHT22;37428;53.580;-1.666;2023-12-14T14:35:05;6.90;99.90
33988;DHT22;37428;53.580;-1.666;2023-12-14T14:38:08;6.80;99.90
33988;DHT22;37428;53.580;-1.666;2023-12-14T14:41:10;6.80;99.90
33988;DHT22;37428;53.580;-1.666;2023-12-14T14:44:13;6.80;99.90
33988;DHT22;37428;53.580;-1.666;2023-12-14T14:47:16;6.80;99.90
33988;DHT22;37428;53.580;-1.666;2023-12-14T14:50:18;6.70;99.90
33988;DHT22;37428;53.580;-1.666;2023-12-14T14:53:20;6.70;99.90
33988;DHT22;37428;53.580;-1.666;2023-12-14T14:56:23;6.60;99.90
33988;DHT22;37428;53.580;-1.666;2023-12-14T14:59:26;6.60;99.90
33988;DHT22;37428;53.580;-1.666;2023-12-14T15:02:31;6.60;99.90
33988;DHT22;37428;53.580;-1.666;2023-12-14T15:05:33;6.60;99.90
33988;DHT22;37428;53.580;-1.666;2023-12-14T15:08:35;6.60;99.90
33988;DHT22;37428;53.580;-1.666;2023-12-14T15:11:38;6.60;99.90
33988;DHT22;37428;53.580;-1.666;2023-12-14T15:14:41;6.70;99.90
33988;DHT22;37428;53.580;-1.666;2023-12-14T15:17:44;6.60;99.90
33988;DHT22;37428;53.580;-1.666;2023-12-14T15:20:46;6.70;99.90
33988;DHT22;37428;53.580;-1.666;2023-12-14T15:23:49;6.70;99.90
33988;DHT22;37428;53.580;-1.666;2023-12-14T15:26:51;6.70;99.90
33988;DHT22;37428;53.580;-1.666;2023-12-14T15:29:55;6.60;99.90
33988;DHT22;37428;53.580;-1.666;2023-12-14T15:32:57;6.60;99.90
33988;DHT22;37428;53.580;-1.666;2023-12-14T15:36:00;6.50;99.90
33988;DHT22;37428;53.580;-1.666;2023-12-14T15:39:02;6.50;99.90
33988;DHT22;37428;53.580;-1.666;2023-12-14T15:42:05;6.40;99.90
33988;DHT22;37428;53.580;-1.666;2023-12-14T15:45:09;6.30;99.40
33988;DHT22;37428;53.580;-1.666;2023-12-14T15:48:11;6.30;98.70
33988;DHT22;37428;53.580;-1.666;2023-12-14T15:51:14;6.30;98.30
33988;DHT22;37428;53.580;-1.666;2023-12-14T15:54:16;6.20;97.80
33988;DHT22;37428;53.580;-1.666;2023-12-14T15:57:19;6.20;97.80
33988;DHT22;37428;53.580;-1.666;2023-12-14T16:00:22;6.30;98.00
33988;DHT22;37428;53.580;-1.666;2023-12-14T16:03:24;6.20;97.50
33988;DHT22;37428;53.580;-1.666;2023-12-14T16:06:27;6.20;97.60
33988;DHT22;37428;53.580;-1.666;2023-12-14T16:09:29;6.30;97.70
33988;DHT22;37428;53.580;-1.666;2023-12-14T16:12:31;6.20;97.60
33988;DHT22;37428;53.580;-1.666;2023-12-14T16:15:35;6.30;97.40
33988;DHT22;37428;53.580;-1.666;2023-12-14T16:18:37;6.20;97.30
33988;DHT22;37428;53.580;-1.666;2023-12-14T16:21:40;6.20;96.90
33988;DHT22;37428;53.580;-1.666;2023-12-14T16:24:42;6.20;96.80
33988;DHT22;37428;53.580;-1.666;2023-12-14T16:27:44;6.20;97.20
33988;DHT22;37428;53.580;-1.666;2023-12-14T16:30:49;6.20;96.60
33988;DHT22;37428;53.580;-1.666;2023-12-14T16:33:51;6.20;95.50
33988;DHT22;37428;53.580;-1.666;2023-12-14T16:36:53;6.20;95.60
33988;DHT22;37428;53.580;-1.666;2023-12-14T16:39:56;6.20;95.70
33988;DHT22;37428;53.580;-1.666;2023-12-14T16:42:58;6.20;95.60
33988;DHT22;37428;53.580;-1.666;2023-12-14T16:46:02;6.20;95.20
33988;DHT22;37428;53.580;-1.666;2023-12-14T16:49:04;6.20;95.00
33988;DHT22;37428;53.580;-1.666;2023-12-14T16:52:07;6.20;94.80
33988;DHT22;37428;53.580;-1.666;2023-12-14T16:55:10;6.20;94.40
33988;DHT22;37428;53.580;-1.666;2023-12-14T16:58:13;6.20;94.40
33988;DHT22;37428;53.580;-1.666;2023-12-14T17:01:16;6.20;93.40
33988;DHT22;37428;53.580;-1.666;2023-12-14T17:04:18;6.30;93.60
33988;DHT22;37428;53.580;-1.666;2023-12-14T17:07:20;6.30;93.30
33988;DHT22;37428;53.580;-1.666;2023-12-14T17:10:23;6.40;93.80
33988;DHT22;37428;53.580;-1.666;2023-12-14T17:13:25;6.40;93.10
33988;DHT22;37428;53.580;-1.666;2023-12-14T17:16:28;6.40;93.40
33988;DHT22;37428;53.580;-1.666;2023-12-14T17:19:31;6.40;92.80
33988;DHT22;37428;53.580;-1.666;2023-12-14T17:22:33;6.40;92.30
33988;DHT22;37428;53.580;-1.666;2023-12-14T17:25:36;6.40;91.30
33988;DHT22;37428;53.580;-1.666;2023-12-14T17:28:39;6.40;91.90
33988;DHT22;37428;53.580;-1.666;2023-12-14T17:31:43;6.40;92.00
33988;DHT22;37428;53.580;-1.666;2023-12-14T17:34:46;6.40;91.10
33988;DHT22;37428;53.580;-1.666;2023-12-14T17:37:48;6.40;90.90
33988;DHT22;37428;53.580;-1.666;2023-12-14T17:40:50;6.40;91.80
33988;DHT22;37428;53.580;-1.666;2023-12-14T17:43:52;6.40;91.30
33988;DHT22;37428;53.580;-1.666;2023-12-14T17:46:56;6.40;91.50
33988;DHT22;37428;53.580;-1.666;2023-12-14T17:49:58;6.40;91.40
33988;DHT22;37428;53.580;-1.666;2023-12-14T17:53:01;6.40;91.50
33988;DHT22;37428;53.580;-1.666;2023-12-14T17:56:03;6.40;91.80
33988;DHT22;37428;53.580;-1.666;2023-12-14T17:59:06;6.30;92.20
33988;DHT22;37428;53.580;-1.666;2023-12-14T18:02:09;6.30;92.50
33988;DHT22;37428;53.580;-1.666;2023-12-14T18:05:12;6.30;92.80
33988;DHT22;37428;53.580;-1.666;2023-12-14T18:08:14;6.30;93.10
33988;DHT22;37428;53.580;-1.666;2023-12-14T18:11:16;6.30;93.40
33988;DHT22;37428;53.580;-1.666;2023-12-14T18:14:19;6.30;93.30
33988;DHT22;37428;53.580;-1.666;2023-12-14T18:17:22;6.30;93.80
33988;DHT22;37428;53.580;-1.666;2023-12-14T18:20:25;6.30;94.00
33988;DHT22;37428;53.580;-1.666;2023-12-14T18:23:27;6.30;94.20
33988;DHT22;37428;53.580;-1.666;2023-12-14T18:26:30;6.30;94.20
33988;DHT22;37428;53.580;-1.666;2023-12-14T18:29:32;6.30;94.30
33988;DHT22;37428;53.580;-1.666;2023-12-14T18:32:36;6.30;95.30
33988;DHT22;37428;53.580;-1.666;2023-12-14T18:35:38;6.20;95.30
33988;DHT22;37428;53.580;-1.666;2023-12-14T18:38:40;6.20;95.60
33988;DHT22;37428;53.580;-1.666;2023-12-14T18:41:42;6.20;95.50
33988;DHT22;37428;53.580;-1.666;2023-12-14T18:44:44;6.20;95.80
33988;DHT22;37428;53.580;-1.666;2023-12-14T18:47:48;6.20;94.90
33988;DHT22;37428;53.580;-1.666;2023-12-14T18:50:50;6.20;95.30
33988;DHT22;37428;53.580;-1.666;2023-12-14T18:53:53;6.20;95.70
33988;DHT22;37428;53.580;-1.666;2023-12-14T18:56:55;6.20;95.70
33988;DHT22;37428;53.580;-1.666;2023-12-14T18:59:57;6.20;96.20
33988;DHT22;37428;53.580;-1.666;2023-12-14T19:03:01;6.20;96.70
33988;DHT22;37428;53.580;-1.666;2023-12-14T19:06:06;6.20;97.00
33988;DHT22;37428;53.580;-1.666;2023-12-14T19:09:09;6.20;97.10
33988;DHT22;37428;53.580;-1.666;2023-12-14T19:12:12;6.20;97.20
33988;DHT22;37428;53.580;-1.666;2023-12-14T19:15:14;6.20;97.10
33988;DHT22;37428;53.580;-1.666;2023-12-14T19:18:18;6.30;97.40
33988;DHT22;37428;53.580;-1.666;2023-12-14T19:21:20;6.20;97.10
33988;DHT22;37428;53.580;-1.666;2023-12-14T19:24:22;6.30;97.00
33988;DHT22;37428;53.580;-1.666;2023-12-14T19:27:26;6.30;97.20